createdAt,value
2022-09-24T00:03:33.747Z,74.3
2022-09-24T00:08:33.719Z,74.3
2022-09-24T00:18:33.467Z,74.5
2022-09-24T00:23:33.509Z,74.5
2022-09-24T00:28:33.882Z,74.6
2022-09-24T00:33:33.892Z,74.6
2022-09-24T00:38:33.281Z,74.7
2022-09-24T00:43:33.655Z,74.7
2022-09-24T00:48:33.923Z,74.8
2022-09-24T00:53:33.358Z,74.9
2022-09-24T00:58:33.739Z,74.9
2022-09-24T01:03:33.755Z,74.9
2022-09-24T01:08:33.333Z,75.0
2022-09-24T01:13:33.305Z,75.1
2022-09-24T01:18:33.557Z,75.3
2022-09-24T01:23:33.426Z,75.3
2022-09-24T01:28:33.608Z,75.3
2022-09-24T01:38:33.429Z,75.3
2022-09-24T01:43:33.150Z,75.3
2022-09-24T01:48:33.806Z,75.3
2022-09-24T01:53:33.655Z,75.4
2022-09-24T01:58:33.230Z,75.5
2022-09-24T02:03:33.536Z,75.4
2022-09-24T02:08:33.312Z,75.4
2022-09-24T02:13:33.252Z,75.4
2022-09-24T02:18:33.136Z,75.4
2022-09-24T02:23:33.463Z,75.4
2022-09-24T02:28:33.296Z,75.4
2022-09-24T02:33:33.424Z,75.3
2022-09-24T02:38:33.512Z,75.3
2022-09-24T02:43:33.925Z,75.3
2022-09-24T02:48:33.044Z,75.4
2022-09-24T02:53:33.426Z,75.5
2022-09-24T02:58:33.466Z,75.4
2022-09-24T03:03:33.434Z,75.5
2022-09-24T03:08:33.137Z,75.5
2022-09-24T03:13:33.127Z,75.6
2022-09-24T03:18:33.301Z,75.5
2022-09-24T03:23:33.393Z,75.6
2022-09-24T03:28:32.988Z,75.7
2022-09-24T03:33:33.109Z,75.8
2022-09-24T03:38:33.298Z,76.0
2022-09-24T03:43:32.981Z,76.1
2022-09-24T03:48:33.314Z,76.1
2022-09-24T03:53:33.052Z,76.3
2022-09-24T03:58:33.038Z,76.4
2022-09-24T04:03:33.667Z,76.4
2022-09-24T04:08:33.054Z,76.4
2022-09-24T04:13:33.070Z,76.5
2022-09-24T04:18:38.346Z,76.6
2022-09-24T04:23:32.935Z,76.7
2022-09-24T04:28:33.377Z,77.2
2022-09-24T04:33:33.116Z,76.8
2022-09-24T04:38:32.940Z,76.8
2022-09-24T04:43:33.577Z,76.8
2022-09-24T04:48:33.117Z,76.8
2022-09-24T04:53:32.954Z,76.9
2022-09-24T04:58:32.825Z,76.9
2022-09-24T05:03:32.826Z,76.9
2022-09-24T05:08:32.843Z,77.0
2022-09-24T05:13:32.851Z,77.0
2022-09-24T05:18:33.172Z,77.1
2022-09-24T05:23:33.000Z,77.2
2022-09-24T05:28:32.924Z,77.3
2022-09-24T05:33:32.824Z,77.3
2022-09-24T05:38:32.786Z,77.4
2022-09-24T05:43:32.804Z,77.5
2022-09-24T05:48:32.964Z,77.5
2022-09-24T05:53:32.773Z,77.5
2022-09-24T05:58:32.735Z,77.5
2022-09-24T06:03:33.086Z,77.6
2022-09-24T06:13:33.571Z,77.7
2022-09-24T06:18:32.803Z,77.7
2022-09-24T06:23:33.557Z,77.7
2022-09-24T06:28:32.682Z,77.7
2022-09-24T06:33:32.869Z,77.7
2022-09-24T06:38:33.867Z,77.8
2022-09-24T06:43:32.973Z,77.8
2022-09-24T06:48:34.024Z,77.8
2022-09-24T06:53:32.647Z,77.8
2022-09-24T06:58:32.709Z,77.8
2022-09-24T07:03:32.709Z,77.8
2022-09-24T07:08:33.333Z,77.7
2022-09-24T07:13:32.597Z,77.7
2022-09-24T07:18:32.880Z,77.8
2022-09-24T07:23:32.881Z,77.8
2022-09-24T07:28:32.766Z,77.7
2022-09-24T07:33:32.540Z,77.6
2022-09-24T07:38:32.936Z,77.6
2022-09-24T07:43:32.863Z,77.6
2022-09-24T07:48:32.641Z,77.6
2022-09-24T07:53:33.009Z,77.5
2022-09-24T07:58:32.639Z,77.5
2022-09-24T08:03:32.795Z,77.4
2022-09-24T08:08:32.769Z,77.4
2022-09-24T08:13:32.519Z,77.2
2022-09-24T08:18:32.499Z,77.1
2022-09-24T08:23:33.349Z,77.1
2022-09-24T08:28:32.534Z,77.0
2022-09-24T08:33:32.440Z,77.0
2022-09-24T08:38:32.723Z,76.8
2022-09-24T08:43:32.466Z,76.8
2022-09-24T08:48:32.436Z,76.9
2022-09-24T08:53:32.620Z,76.7
2022-09-24T08:58:32.501Z,76.7
2022-09-24T09:03:32.550Z,76.6
2022-09-24T09:08:55.066Z,76.4
2022-09-24T09:13:32.448Z,76.3
2022-09-24T09:18:32.484Z,76.1
2022-09-24T09:23:32.535Z,76.1
2022-09-24T09:28:32.377Z,75.7
2022-09-24T09:33:32.388Z,75.4
2022-09-24T09:38:32.710Z,75.6
2022-09-24T09:43:32.486Z,75.4
2022-09-24T09:48:32.431Z,75.3
2022-09-24T09:53:32.396Z,74.8
2022-09-24T09:58:32.449Z,74.5
2022-09-24T10:03:32.665Z,74.4
2022-09-24T10:08:33.786Z,74.2
2022-09-24T10:13:32.421Z,74.1
2022-09-24T10:18:32.576Z,74.0
2022-09-24T10:23:32.478Z,73.9
2022-09-24T10:28:32.359Z,73.7
2022-09-24T10:33:32.277Z,73.4
2022-09-24T10:38:32.473Z,73.2
2022-09-24T10:43:32.485Z,73.0
2022-09-24T10:48:32.227Z,72.8
2022-09-24T10:53:32.439Z,72.7
2022-09-24T10:58:32.309Z,72.3
2022-09-24T11:03:32.379Z,72.3
2022-09-24T11:08:36.759Z,72.0
2022-09-24T11:13:32.314Z,71.7
2022-09-24T11:18:32.351Z,71.3
2022-09-24T11:23:32.266Z,70.9
2022-09-24T11:33:33.157Z,70.9
2022-09-24T11:38:32.220Z,70.6
2022-09-24T11:43:32.272Z,70.4
2022-09-24T11:48:32.530Z,70.0
2022-09-24T11:53:32.872Z,69.9
2022-09-24T11:58:32.130Z,69.7
2022-09-24T12:03:32.859Z,69.4
2022-09-24T12:08:32.443Z,69.2
2022-09-24T12:13:32.415Z,69.0
2022-09-24T12:18:33.101Z,68.8
2022-09-24T12:23:32.278Z,68.4
2022-09-24T12:28:32.250Z,68.3
2022-09-24T12:33:32.439Z,68.0
2022-09-24T12:38:32.146Z,67.8
2022-09-24T12:48:32.323Z,67.2
2022-09-24T12:53:32.141Z,67.2
2022-09-24T12:58:32.395Z,66.8
2022-09-24T13:03:31.988Z,66.6
2022-09-24T13:08:32.199Z,66.6
2022-09-24T13:13:32.017Z,66.5
2022-09-24T13:18:32.350Z,66.4
2022-09-24T13:23:32.189Z,66.4
2022-09-24T13:28:38.735Z,66.4
2022-09-24T13:33:31.953Z,66.2
2022-09-24T13:38:32.091Z,66.0
2022-09-24T13:43:31.914Z,65.9
2022-09-24T13:48:32.228Z,65.8
2022-09-24T13:53:32.473Z,65.6
2022-09-24T13:58:32.054Z,65.4
2022-09-24T14:03:31.977Z,65.2
2022-09-24T14:08:32.020Z,65.2
2022-09-24T14:13:32.051Z,64.7
2022-09-24T14:18:32.247Z,64.8
2022-09-24T14:23:31.948Z,64.6
2022-09-24T14:28:32.048Z,64.7
2022-09-24T14:33:32.361Z,64.6
2022-09-24T14:38:31.981Z,64.5
2022-09-24T14:43:31.874Z,64.2
2022-09-24T14:48:32.244Z,63.9
2022-09-24T14:53:31.972Z,63.8
2022-09-24T14:58:31.937Z,63.7
2022-09-24T15:03:32.099Z,63.9
2022-09-24T15:08:31.860Z,63.7
2022-09-24T15:13:31.866Z,63.8
2022-09-24T15:18:31.972Z,63.8
2022-09-24T15:23:33.488Z,63.9
2022-09-24T15:28:32.157Z,63.9
2022-09-24T15:33:32.014Z,63.9
2022-09-24T15:38:31.751Z,63.9
2022-09-24T15:43:31.899Z,64.0
2022-09-24T15:48:32.134Z,64.1
2022-09-24T15:53:31.923Z,64.2
2022-09-24T15:58:31.821Z,64.3
2022-09-24T16:03:32.331Z,64.5
2022-09-24T16:08:31.915Z,64.8
2022-09-24T16:13:31.843Z,64.9
2022-09-24T16:18:31.754Z,65.2
2022-09-24T16:23:31.855Z,65.3
2022-09-24T16:28:31.934Z,65.4
2022-09-24T16:33:31.749Z,65.5
2022-09-24T16:38:31.729Z,65.6
2022-09-24T16:43:32.124Z,65.6
2022-09-24T16:48:31.729Z,65.6
2022-09-24T16:53:31.701Z,65.8
2022-09-24T16:58:31.849Z,65.9
2022-09-24T17:03:31.787Z,66.1
2022-09-24T17:08:31.669Z,66.2
2022-09-24T17:13:31.863Z,66.3
2022-09-24T17:18:31.676Z,66.4
2022-09-24T17:23:31.674Z,66.5
2022-09-24T17:28:31.839Z,66.7
2022-09-24T17:33:43.007Z,66.8
2022-09-24T17:38:31.655Z,66.8
2022-09-24T17:43:31.975Z,66.9
2022-09-24T17:48:31.666Z,67.0
2022-09-24T17:53:31.662Z,67.1
2022-09-24T17:58:34.954Z,67.3
2022-09-24T18:03:32.231Z,67.4
2022-09-24T18:08:31.675Z,67.5
2022-09-24T18:13:33.006Z,67.7
2022-09-24T18:18:31.475Z,67.8
2022-09-24T18:23:32.378Z,68.0
2022-09-24T18:28:31.911Z,68.0
2022-09-24T18:33:31.588Z,68.0
2022-09-24T18:38:32.142Z,68.1
2022-09-24T18:43:31.615Z,68.2
2022-09-24T18:48:32.321Z,68.3
2022-09-24T18:53:34.343Z,68.4
2022-09-24T18:58:31.593Z,68.4
2022-09-24T19:03:31.662Z,68.5
2022-09-24T19:08:31.831Z,68.6
2022-09-24T19:13:31.855Z,68.8
2022-09-24T19:18:31.481Z,68.8
2022-09-24T19:23:31.558Z,68.9
2022-09-24T19:28:31.420Z,69.0
2022-09-24T19:33:31.420Z,69.2
2022-09-24T19:38:31.526Z,69.2
2022-09-24T19:43:31.430Z,69.4
2022-09-24T19:48:31.485Z,69.4
2022-09-24T19:53:31.522Z,69.5
2022-09-24T19:58:31.371Z,69.6
2022-09-24T20:03:31.355Z,69.8
2022-09-24T20:08:31.684Z,69.9
2022-09-24T20:13:31.371Z,70.0
2022-09-24T20:18:31.580Z,70.1
2022-09-24T20:23:31.556Z,70.2
2022-09-24T20:28:31.499Z,70.2
2022-09-24T20:33:32.342Z,70.3
2022-09-24T20:38:31.719Z,70.3
2022-09-24T20:43:31.680Z,70.4
2022-09-24T20:48:31.386Z,70.5
2022-09-24T20:53:31.973Z,70.6
2022-09-24T20:58:31.674Z,70.7
2022-09-24T21:03:44.101Z,70.8
2022-09-24T21:08:31.252Z,70.9
2022-09-24T21:13:31.341Z,71.0
2022-09-24T21:18:39.572Z,71.0
2022-09-24T21:23:31.458Z,71.1
2022-09-24T21:28:31.271Z,71.1
2022-09-24T21:33:31.519Z,71.2
2022-09-24T21:38:31.525Z,71.3
2022-09-24T21:43:34.833Z,71.4
2022-09-24T21:48:31.703Z,71.5
2022-09-24T21:53:31.402Z,71.5
2022-09-24T21:58:31.140Z,71.6
2022-09-24T22:03:31.373Z,71.6
2022-09-24T22:08:31.357Z,71.7
2022-09-24T22:13:31.260Z,71.8
2022-09-24T22:18:31.104Z,71.9
2022-09-24T22:23:31.343Z,72.0
2022-09-24T22:28:31.125Z,72.1
2022-09-24T22:33:31.172Z,72.1
2022-09-24T22:38:31.204Z,72.2
2022-09-24T22:43:31.068Z,72.3
2022-09-24T22:48:31.083Z,72.4
2022-09-24T22:53:31.214Z,72.5
2022-09-24T22:58:31.072Z,72.5
2022-09-24T23:03:31.070Z,72.6
2022-09-24T23:08:31.188Z,72.7
2022-09-24T23:13:31.111Z,72.7
2022-09-24T23:18:31.086Z,72.8
2022-09-24T23:23:31.252Z,72.8
2022-09-24T23:28:31.157Z,72.9
2022-09-24T23:33:31.141Z,73.0
2022-09-24T23:38:31.160Z,73.1
2022-09-24T23:43:31.074Z,73.2
2022-09-24T23:48:31.130Z,73.2
2022-09-24T23:53:31.094Z,73.3
2022-09-24T23:58:31.072Z,73.4
